sensor_id;sensor_type;location;lat;lon;timestamp;P1;durP1;ratioP1;P2;durP2;ratioP2
69047;SDS011;56119;50.118;8.642;2023-03-01T00:02:05;24.97;;;15.70;;
69047;SDS011;56119;50.118;8.642;2023-03-01T00:04:31;23.63;;;14.43;;
69047;SDS011;56119;50.118;8.642;2023-03-01T00:06:57;20.23;;;12.90;;
69047;SDS011;56119;50.118;8.642;2023-03-01T00:09:23;19.03;;;13.67;;
69047;SDS011;56119;50.118;8.642;2023-03-01T00:11:49;22.03;;;14.50;;
69047;SDS011;56119;50.118;8.642;2023-03-01T00:14:15;20.93;;;14.47;;
69047;SDS011;56119;50.118;8.642;2023-03-01T00:16:42;23.70;;;14.87;;
69047;SDS011;56119;50.118;8.642;2023-03-01T00:19:10;22.97;;;13.47;;
69047;SDS011;56119;50.118;8.642;2023-03-01T00:21:37;20.40;;;13.87;;
69047;SDS011;56119;50.118;8.642;2023-03-01T00:24:03;20.40;;;14.50;;
69047;SDS011;56119;50.118;8.642;2023-03-01T00:26:29;21.40;;;14.13;;
69047;SDS011;56119;50.118;8.642;2023-03-01T00:28:56;22.13;;;14.67;;
69047;SDS011;56119;50.118;8.642;2023-03-01T00:31:23;21.90;;;13.50;;
69047;SDS011;56119;50.118;8.642;2023-03-01T00:33:52;20.37;;;13.80;;
69047;SDS011;56119;50.118;8.642;2023-03-01T00:36:21;20.13;;;13.83;;
69047;SDS011;56119;50.118;8.642;2023-03-01T00:38:47;23.60;;;14.37;;
69047;SDS011;56119;50.118;8.642;2023-03-01T00:41:14;23.83;;;14.67;;
69047;SDS011;56119;50.118;8.642;2023-03-01T00:43:41;21.23;;;13.60;;
69047;SDS011;56119;50.118;8.642;2023-03-01T00:46:08;21.83;;;14.40;;
69047;SDS011;56119;50.118;8.642;2023-03-01T00:48:35;20.10;;;14.57;;
69047;SDS011;56119;50.118;8.642;2023-03-01T00:51:08;22.17;;;14.30;;
69047;SDS011;56119;50.118;8.642;2023-03-01T00:53:35;23.83;;;14.73;;
69047;SDS011;56119;50.118;8.642;2023-03-01T00:56:01;22.17;;;14.70;;
69047;SDS011;56119;50.118;8.642;2023-03-01T00:58:27;23.40;;;14.47;;
69047;SDS011;56119;50.118;8.642;2023-03-01T01:00:53;22.47;;;14.13;;
69047;SDS011;56119;50.118;8.642;2023-03-01T01:03:20;21.43;;;14.60;;
69047;SDS011;56119;50.118;8.642;2023-03-01T01:05:46;23.30;;;14.40;;
69047;SDS011;56119;50.118;8.642;2023-03-01T01:08:11;21.10;;;14.13;;
69047;SDS011;56119;50.118;8.642;2023-03-01T01:10:38;23.57;;;14.97;;
69047;SDS011;56119;50.118;8.642;2023-03-01T01:13:04;20.30;;;13.97;;
69047;SDS011;56119;50.118;8.642;2023-03-01T01:15:33;21.40;;;14.20;;
69047;SDS011;56119;50.118;8.642;2023-03-01T01:17:59;24.23;;;14.60;;
69047;SDS011;56119;50.118;8.642;2023-03-01T01:20:25;21.30;;;14.83;;
69047;SDS011;56119;50.118;8.642;2023-03-01T01:22:51;22.63;;;14.40;;
69047;SDS011;56119;50.118;8.642;2023-03-01T01:25:17;21.47;;;14.97;;
69047;SDS011;56119;50.118;8.642;2023-03-01T01:27:43;21.60;;;14.43;;
69047;SDS011;56119;50.118;8.642;2023-03-01T01:30:10;23.13;;;14.73;;
69047;SDS011;56119;50.118;8.642;2023-03-01T01:32:36;22.83;;;14.97;;
69047;SDS011;56119;50.118;8.642;2023-03-01T01:35:02;21.13;;;14.53;;
69047;SDS011;56119;50.118;8.642;2023-03-01T01:37:28;24.27;;;15.00;;
69047;SDS011;56119;50.118;8.642;2023-03-01T01:39:58;21.90;;;15.47;;
69047;SDS011;56119;50.118;8.642;2023-03-01T01:42:24;24.90;;;14.90;;
69047;SDS011;56119;50.118;8.642;2023-03-01T01:45:23;21.07;;;13.83;;
69047;SDS011;56119;50.118;8.642;2023-03-01T01:47:39;23.43;;;14.90;;
69047;SDS011;56119;50.118;8.642;2023-03-01T01:50:08;23.00;;;15.17;;
69047;SDS011;56119;50.118;8.642;2023-03-01T01:52:40;22.20;;;14.27;;
69047;SDS011;56119;50.118;8.642;2023-03-01T01:55:10;23.10;;;16.13;;
69047;SDS011;56119;50.118;8.642;2023-03-01T01:57:38;23.77;;;15.30;;
69047;SDS011;56119;50.118;8.642;2023-03-01T02:00:07;20.67;;;15.07;;
69047;SDS011;56119;50.118;8.642;2023-03-01T02:02:33;20.77;;;14.93;;
69047;SDS011;56119;50.118;8.642;2023-03-01T02:05:03;25.27;;;16.63;;
69047;SDS011;56119;50.118;8.642;2023-03-01T02:07:35;21.97;;;15.00;;
69047;SDS011;56119;50.118;8.642;2023-03-01T02:10:02;24.73;;;15.23;;
69047;SDS011;56119;50.118;8.642;2023-03-01T02:12:28;22.97;;;15.37;;
69047;SDS011;56119;50.118;8.642;2023-03-01T02:14:54;21.17;;;15.00;;
69047;SDS011;56119;50.118;8.642;2023-03-01T02:17:20;22.50;;;13.77;;
69047;SDS011;56119;50.118;8.642;2023-03-01T02:19:51;22.87;;;15.47;;
69047;SDS011;56119;50.118;8.642;2023-03-01T02:22:22;25.77;;;15.33;;
69047;SDS011;56119;50.118;8.642;2023-03-01T02:27:19;23.00;;;15.80;;
69047;SDS011;56119;50.118;8.642;2023-03-01T02:29:46;25.50;;;15.73;;
69047;SDS011;56119;50.118;8.642;2023-03-01T02:32:12;25.43;;;16.07;;
69047;SDS011;56119;50.118;8.642;2023-03-01T02:34:40;22.03;;;14.20;;
69047;SDS011;56119;50.118;8.642;2023-03-01T02:37:10;22.23;;;15.27;;
69047;SDS011;56119;50.118;8.642;2023-03-01T02:39:41;24.50;;;14.87;;
69047;SDS011;56119;50.118;8.642;2023-03-01T02:42:10;23.27;;;15.60;;
69047;SDS011;56119;50.118;8.642;2023-03-01T02:44:36;22.57;;;15.87;;
69047;SDS011;56119;50.118;8.642;2023-03-01T02:47:02;26.67;;;16.57;;
69047;SDS011;56119;50.118;8.642;2023-03-01T02:49:32;22.10;;;14.93;;
69047;SDS011;56119;50.118;8.642;2023-03-01T02:54:34;25.27;;;15.80;;
69047;SDS011;56119;50.118;8.642;2023-03-01T02:57:02;23.87;;;16.13;;
69047;SDS011;56119;50.118;8.642;2023-03-01T02:59:29;25.43;;;16.80;;
69047;SDS011;56119;50.118;8.642;2023-03-01T03:01:56;22.83;;;15.83;;
69047;SDS011;56119;50.118;8.642;2023-03-01T03:04:22;23.07;;;16.60;;
69047;SDS011;56119;50.118;8.642;2023-03-01T03:06:48;24.80;;;16.23;;
69047;SDS011;56119;50.118;8.642;2023-03-01T03:09:15;24.93;;;16.27;;
69047;SDS011;56119;50.118;8.642;2023-03-01T03:11:41;24.93;;;16.00;;
69047;SDS011;56119;50.118;8.642;2023-03-01T03:14:08;23.60;;;16.90;;
69047;SDS011;56119;50.118;8.642;2023-03-01T03:16:39;24.60;;;15.97;;
69047;SDS011;56119;50.118;8.642;2023-03-01T03:19:05;27.73;;;17.27;;
69047;SDS011;56119;50.118;8.642;2023-03-01T03:21:34;26.37;;;16.23;;
69047;SDS011;56119;50.118;8.642;2023-03-01T03:24:00;25.97;;;18.27;;
69047;SDS011;56119;50.118;8.642;2023-03-01T03:26:26;26.23;;;18.13;;
69047;SDS011;56119;50.118;8.642;2023-03-01T03:28:52;27.47;;;16.83;;
69047;SDS011;56119;50.118;8.642;2023-03-01T03:31:18;25.53;;;16.70;;
69047;SDS011;56119;50.118;8.642;2023-03-01T03:33:44;28.90;;;17.23;;
69047;SDS011;56119;50.118;8.642;2023-03-01T03:36:14;24.07;;;16.63;;
69047;SDS011;56119;50.118;8.642;2023-03-01T03:38:42;27.47;;;16.63;;
69047;SDS011;56119;50.118;8.642;2023-03-01T03:41:09;25.03;;;16.20;;
69047;SDS011;56119;50.118;8.642;2023-03-01T03:43:36;29.57;;;18.93;;
69047;SDS011;56119;50.118;8.642;2023-03-01T03:46:03;26.17;;;17.73;;
69047;SDS011;56119;50.118;8.642;2023-03-01T03:48:30;25.27;;;17.10;;
69047;SDS011;56119;50.118;8.642;2023-03-01T03:50:56;28.07;;;16.80;;
69047;SDS011;56119;50.118;8.642;2023-03-01T03:53:23;26.10;;;17.07;;
69047;SDS011;56119;50.118;8.642;2023-03-01T03:55:49;28.50;;;17.23;;
69047;SDS011;56119;50.118;8.642;2023-03-01T03:58:16;26.80;;;17.33;;
69047;SDS011;56119;50.118;8.642;2023-03-01T04:00:44;28.77;;;17.20;;
69047;SDS011;56119;50.118;8.642;2023-03-01T04:03:11;28.30;;;18.17;;
69047;SDS011;56119;50.118;8.642;2023-03-01T04:05:38;26.63;;;16.97;;
69047;SDS011;56119;50.118;8.642;2023-03-01T04:08:04;29.77;;;18.13;;
69047;SDS011;56119;50.118;8.642;2023-03-01T04:10:37;28.87;;;18.27;;
69047;SDS011;56119;50.118;8.642;2023-03-01T04:13:04;25.23;;;17.00;;
69047;SDS011;56119;50.118;8.642;2023-03-01T04:15:31;32.77;;;19.03;;
69047;SDS011;56119;50.118;8.642;2023-03-01T04:17:58;27.67;;;18.27;;
69047;SDS011;56119;50.118;8.642;2023-03-01T04:20:28;28.77;;;17.77;;
69047;SDS011;56119;50.118;8.642;2023-03-01T04:23:03;28.17;;;17.40;;
69047;SDS011;56119;50.118;8.642;2023-03-01T04:25:54;28.60;;;18.07;;
69047;SDS011;56119;50.118;8.642;2023-03-01T04:28:25;26.17;;;17.23;;
69047;SDS011;56119;50.118;8.642;2023-03-01T04:30:51;30.73;;;18.37;;
69047;SDS011;56119;50.118;8.642;2023-03-01T04:33:18;27.07;;;17.47;;
69047;SDS011;56119;50.118;8.642;2023-03-01T04:35:44;31.27;;;19.07;;
69047;SDS011;56119;50.118;8.642;2023-03-01T04:38:10;28.53;;;17.77;;
69047;SDS011;56119;50.118;8.642;2023-03-01T04:40:37;29.37;;;18.27;;
69047;SDS011;56119;50.118;8.642;2023-03-01T04:43:03;33.07;;;19.10;;
69047;SDS011;56119;50.118;8.642;2023-03-01T04:45:31;32.77;;;18.77;;
69047;SDS011;56119;50.118;8.642;2023-03-01T04:47:57;31.23;;;19.13;;
69047;SDS011;56119;50.118;8.642;2023-03-01T04:50:23;27.90;;;18.10;;
69047;SDS011;56119;50.118;8.642;2023-03-01T04:52:50;28.80;;;18.43;;
69047;SDS011;56119;50.118;8.642;2023-03-01T04:55:19;29.57;;;17.43;;
69047;SDS011;56119;50.118;8.642;2023-03-01T04:57:45;30.23;;;18.90;;
69047;SDS011;56119;50.118;8.642;2023-03-01T05:00:12;31.20;;;18.33;;
69047;SDS011;56119;50.118;8.642;2023-03-01T05:02:48;30.13;;;18.27;;
69047;SDS011;56119;50.118;8.642;2023-03-01T05:05:18;29.43;;;18.20;;
69047;SDS011;56119;50.118;8.642;2023-03-01T05:07:43;29.90;;;18.23;;
69047;SDS011;56119;50.118;8.642;2023-03-01T05:10:09;27.07;;;18.23;;
69047;SDS011;56119;50.118;8.642;2023-03-01T05:12:35;29.13;;;18.80;;
69047;SDS011;56119;50.118;8.642;2023-03-01T05:15:02;30.30;;;17.50;;
69047;SDS011;56119;50.118;8.642;2023-03-01T05:17:31;31.00;;;18.43;;
69047;SDS011;56119;50.118;8.642;2023-03-01T05:19:57;31.20;;;18.13;;
69047;SDS011;56119;50.118;8.642;2023-03-01T05:22:24;32.23;;;18.00;;
69047;SDS011;56119;50.118;8.642;2023-03-01T05:24:50;27.83;;;17.67;;
69047;SDS011;56119;50.118;8.642;2023-03-01T05:27:19;26.37;;;17.07;;
69047;SDS011;56119;50.118;8.642;2023-03-01T05:29:47;29.10;;;17.93;;
69047;SDS011;56119;50.118;8.642;2023-03-01T05:32:13;29.63;;;17.90;;
69047;SDS011;56119;50.118;8.642;2023-03-01T05:34:40;31.63;;;18.27;;
69047;SDS011;56119;50.118;8.642;2023-03-01T05:37:06;28.53;;;18.20;;
69047;SDS011;56119;50.118;8.642;2023-03-01T05:39:35;26.03;;;17.60;;
69047;SDS011;56119;50.118;8.642;2023-03-01T05:42:01;27.43;;;19.07;;
69047;SDS011;56119;50.118;8.642;2023-03-01T05:44:27;29.83;;;17.63;;
69047;SDS011;56119;50.118;8.642;2023-03-01T05:46:54;31.50;;;18.23;;
69047;SDS011;56119;50.118;8.642;2023-03-01T05:49:20;32.17;;;19.17;;
69047;SDS011;56119;50.118;8.642;2023-03-01T05:51:50;32.27;;;18.33;;
69047;SDS011;56119;50.118;8.642;2023-03-01T05:54:17;30.63;;;17.93;;
69047;SDS011;56119;50.118;8.642;2023-03-01T05:56:43;30.80;;;18.63;;
69047;SDS011;56119;50.118;8.642;2023-03-01T05:59:09;30.50;;;18.63;;
69047;SDS011;56119;50.118;8.642;2023-03-01T06:01:36;29.33;;;16.83;;
69047;SDS011;56119;50.118;8.642;2023-03-01T06:04:03;29.50;;;18.50;;
69047;SDS011;56119;50.118;8.642;2023-03-01T06:06:29;28.80;;;18.70;;
69047;SDS011;56119;50.118;8.642;2023-03-01T06:08:56;34.60;;;19.73;;
69047;SDS011;56119;50.118;8.642;2023-03-01T06:11:22;33.27;;;18.87;;
69047;SDS011;56119;50.118;8.642;2023-03-01T06:13:47;31.90;;;19.93;;
69047;SDS011;56119;50.118;8.642;2023-03-01T06:16:13;31.70;;;19.40;;
69047;SDS011;56119;50.118;8.642;2023-03-01T06:18:40;35.53;;;19.70;;
69047;SDS011;56119;50.118;8.642;2023-03-01T06:21:06;32.37;;;17.63;;
69047;SDS011;56119;50.118;8.642;2023-03-01T06:23:33;30.10;;;18.47;;
69047;SDS011;56119;50.118;8.642;2023-03-01T06:25:59;31.57;;;18.20;;
69047;SDS011;56119;50.118;8.642;2023-03-01T06:28:25;29.23;;;17.83;;
69047;SDS011;56119;50.118;8.642;2023-03-01T06:30:51;31.63;;;17.97;;
69047;SDS011;56119;50.118;8.642;2023-03-01T06:33:18;29.30;;;18.07;;
69047;SDS011;56119;50.118;8.642;2023-03-01T06:35:45;32.87;;;18.93;;
69047;SDS011;56119;50.118;8.642;2023-03-01T06:38:11;32.20;;;18.73;;
69047;SDS011;56119;50.118;8.642;2023-03-01T06:40:40;33.63;;;19.43;;
69047;SDS011;56119;50.118;8.642;2023-03-01T06:43:06;29.30;;;17.80;;
69047;SDS011;56119;50.118;8.642;2023-03-01T06:45:32;33.23;;;18.37;;
69047;SDS011;56119;50.118;8.642;2023-03-01T06:48:02;33.23;;;19.03;;
69047;SDS011;56119;50.118;8.642;2023-03-01T06:50:28;29.80;;;18.90;;
69047;SDS011;56119;50.118;8.642;2023-03-01T06:52:59;30.03;;;19.17;;
69047;SDS011;56119;50.118;8.642;2023-03-01T06:55:25;31.07;;;18.03;;
69047;SDS011;56119;50.118;8.642;2023-03-01T06:57:57;30.87;;;18.93;;
69047;SDS011;56119;50.118;8.642;2023-03-01T07:00:24;28.47;;;18.83;;
69047;SDS011;56119;50.118;8.642;2023-03-01T07:02:50;27.47;;;18.27;;
69047;SDS011;56119;50.118;8.642;2023-03-01T07:05:16;29.37;;;18.53;;
69047;SDS011;56119;50.118;8.642;2023-03-01T07:07:42;30.30;;;21.30;;
69047;SDS011;56119;50.118;8.642;2023-03-01T07:10:09;26.37;;;18.87;;
69047;SDS011;56119;50.118;8.642;2023-03-01T07:12:35;33.97;;;19.83;;
69047;SDS011;56119;50.118;8.642;2023-03-01T07:15:01;27.97;;;18.20;;
69047;SDS011;56119;50.118;8.642;2023-03-01T07:17:27;26.63;;;17.97;;
69047;SDS011;56119;50.118;8.642;2023-03-01T07:19:53;28.83;;;17.80;;
69047;SDS011;56119;50.118;8.642;2023-03-01T07:22:19;26.60;;;17.57;;
69047;SDS011;56119;50.118;8.642;2023-03-01T07:24:45;29.07;;;18.40;;
69047;SDS011;56119;50.118;8.642;2023-03-01T07:27:11;29.70;;;18.60;;
69047;SDS011;56119;50.118;8.642;2023-03-01T07:29:37;29.07;;;18.87;;
69047;SDS011;56119;50.118;8.642;2023-03-01T07:32:04;28.63;;;18.93;;
69047;SDS011;56119;50.118;8.642;2023-03-01T07:34:30;29.57;;;18.77;;
69047;SDS011;56119;50.118;8.642;2023-03-01T07:36:56;32.73;;;18.53;;
69047;SDS011;56119;50.118;8.642;2023-03-01T07:39:22;31.17;;;19.90;;
69047;SDS011;56119;50.118;8.642;2023-03-01T07:41:48;30.00;;;19.33;;
69047;SDS011;56119;50.118;8.642;2023-03-01T07:44:14;31.00;;;19.10;;
69047;SDS011;56119;50.118;8.642;2023-03-01T07:46:42;28.37;;;18.33;;
69047;SDS011;56119;50.118;8.642;2023-03-01T07:49:08;30.73;;;18.60;;
69047;SDS011;56119;50.118;8.642;2023-03-01T07:51:34;29.57;;;18.90;;
69047;SDS011;56119;50.118;8.642;2023-03-01T07:53:59;30.63;;;19.00;;
69047;SDS011;56119;50.118;8.642;2023-03-01T07:56:25;33.27;;;18.37;;
69047;SDS011;56119;50.118;8.642;2023-03-01T07:58:51;28.63;;;18.77;;
69047;SDS011;56119;50.118;8.642;2023-03-01T08:01:18;27.57;;;18.40;;
69047;SDS011;56119;50.118;8.642;2023-03-01T08:03:44;30.77;;;18.80;;
69047;SDS011;56119;50.118;8.642;2023-03-01T08:06:11;31.07;;;19.00;;
69047;SDS011;56119;50.118;8.642;2023-03-01T08:08:37;31.07;;;19.57;;
69047;SDS011;56119;50.118;8.642;2023-03-01T08:11:04;29.77;;;18.37;;
69047;SDS011;56119;50.118;8.642;2023-03-01T08:13:30;29.50;;;19.10;;
69047;SDS011;56119;50.118;8.642;2023-03-01T08:16:00;32.97;;;19.67;;
69047;SDS011;56119;50.118;8.642;2023-03-01T08:18:27;33.00;;;19.47;;
69047;SDS011;56119;50.118;8.642;2023-03-01T08:20:52;31.67;;;18.97;;
69047;SDS011;56119;50.118;8.642;2023-03-01T08:23:18;35.00;;;20.17;;
69047;SDS011;56119;50.118;8.642;2023-03-01T08:25:44;32.87;;;20.10;;
69047;SDS011;56119;50.118;8.642;2023-03-01T08:28:10;33.17;;;20.20;;
69047;SDS011;56119;50.118;8.642;2023-03-01T08:30:36;32.47;;;19.27;;
69047;SDS011;56119;50.118;8.642;2023-03-01T08:33:02;33.17;;;20.13;;
69047;SDS011;56119;50.118;8.642;2023-03-01T08:35:28;33.77;;;21.37;;
69047;SDS011;56119;50.118;8.642;2023-03-01T08:37:54;28.97;;;18.73;;
69047;SDS011;56119;50.118;8.642;2023-03-01T08:40:20;31.27;;;19.60;;
69047;SDS011;56119;50.118;8.642;2023-03-01T08:42:46;32.63;;;19.23;;
69047;SDS011;56119;50.118;8.642;2023-03-01T08:45:12;31.47;;;19.27;;
69047;SDS011;56119;50.118;8.642;2023-03-01T08:47:43;29.93;;;19.03;;
69047;SDS011;56119;50.118;8.642;2023-03-01T08:50:10;35.17;;;19.60;;
69047;SDS011;56119;50.118;8.642;2023-03-01T08:52:36;33.27;;;20.10;;
69047;SDS011;56119;50.118;8.642;2023-03-01T08:55:02;31.73;;;19.83;;
69047;SDS011;56119;50.118;8.642;2023-03-01T08:57:28;30.50;;;18.53;;
69047;SDS011;56119;50.118;8.642;2023-03-01T08:59:54;32.63;;;18.13;;
69047;SDS011;56119;50.118;8.642;2023-03-01T09:02:21;26.07;;;17.40;;
69047;SDS011;56119;50.118;8.642;2023-03-01T09:04:47;31.87;;;17.90;;
69047;SDS011;56119;50.118;8.642;2023-03-01T09:07:13;31.50;;;19.67;;
69047;SDS011;56119;50.118;8.642;2023-03-01T09:09:39;27.03;;;18.13;;
69047;SDS011;56119;50.118;8.642;2023-03-01T09:12:05;34.33;;;20.10;;
69047;SDS011;56119;50.118;8.642;2023-03-01T09:14:31;27.40;;;18.20;;
69047;SDS011;56119;50.118;8.642;2023-03-01T09:16:57;26.50;;;16.80;;
69047;SDS011;56119;50.118;8.642;2023-03-01T09:19:23;30.30;;;18.33;;
69047;SDS011;56119;50.118;8.642;2023-03-01T09:21:49;29.57;;;17.90;;
69047;SDS011;56119;50.118;8.642;2023-03-01T09:24:22;26.97;;;18.03;;
69047;SDS011;56119;50.118;8.642;2023-03-01T09:26:48;24.98;;;16.40;;
69047;SDS011;56119;50.118;8.642;2023-03-01T09:29:15;26.87;;;17.33;;
69047;SDS011;56119;50.118;8.642;2023-03-01T09:31:41;30.08;;;17.42;;
69047;SDS011;56119;50.118;8.642;2023-03-01T09:34:08;28.47;;;16.80;;
69047;SDS011;56119;50.118;8.642;2023-03-01T09:36:34;27.77;;;17.90;;
69047;SDS011;56119;50.118;8.642;2023-03-01T09:39:00;28.70;;;17.40;;
69047;SDS011;56119;50.118;8.642;2023-03-01T09:46:37;28.15;;;18.23;;
69047;SDS011;56119;50.118;8.642;2023-03-01T09:49:17;27.70;;;18.13;;
69047;SDS011;56119;50.118;8.642;2023-03-01T09:51:48;30.10;;;17.10;;
69047;SDS011;56119;50.118;8.642;2023-03-01T09:54:16;26.95;;;17.25;;
69047;SDS011;56119;50.118;8.642;2023-03-01T09:57:01;26.33;;;17.97;;
69047;SDS011;56119;50.118;8.642;2023-03-01T09:59:36;28.02;;;17.08;;
69047;SDS011;56119;50.118;8.642;2023-03-01T10:02:26;29.60;;;18.10;;
69047;SDS011;56119;50.118;8.642;2023-03-01T10:05:19;27.65;;;18.17;;
69047;SDS011;56119;50.118;8.642;2023-03-01T10:10:28;28.55;;;18.05;;
69047;SDS011;56119;50.118;8.642;2023-03-01T10:12:57;26.83;;;17.65;;
69047;SDS011;56119;50.118;8.642;2023-03-01T10:15:30;29.38;;;17.98;;
69047;SDS011;56119;50.118;8.642;2023-03-01T10:18:01;27.33;;;18.10;;
69047;SDS011;56119;50.118;8.642;2023-03-01T10:23:17;27.67;;;17.08;;
69047;SDS011;56119;50.118;8.642;2023-03-01T10:30:41;28.15;;;18.23;;
69047;SDS011;56119;50.118;8.642;2023-03-01T10:35:47;24.13;;;16.23;;
69047;SDS011;56119;50.118;8.642;2023-03-01T10:38:14;28.58;;;17.70;;
69047;SDS011;56119;50.118;8.642;2023-03-01T10:41:04;27.70;;;17.63;;
69047;SDS011;56119;50.118;8.642;2023-03-01T10:43:46;30.10;;;17.80;;
69047;SDS011;56119;50.118;8.642;2023-03-01T10:46:23;26.88;;;18.10;;
69047;SDS011;56119;50.118;8.642;2023-03-01T10:54:01;27.92;;;16.75;;
69047;SDS011;56119;50.118;8.642;2023-03-01T10:56:27;27.45;;;17.13;;
69047;SDS011;56119;50.118;8.642;2023-03-01T11:03:55;27.88;;;16.33;;
69047;SDS011;56119;50.118;8.642;2023-03-01T11:06:28;23.92;;;16.60;;
69047;SDS011;56119;50.118;8.642;2023-03-01T11:08:54;23.35;;;16.65;;
69047;SDS011;56119;50.118;8.642;2023-03-01T11:11:30;23.67;;;15.60;;
69047;SDS011;56119;50.118;8.642;2023-03-01T11:14:02;24.65;;;16.70;;
69047;SDS011;56119;50.118;8.642;2023-03-01T11:16:30;25.55;;;15.65;;
69047;SDS011;56119;50.118;8.642;2023-03-01T11:18:58;22.42;;;15.50;;
69047;SDS011;56119;50.118;8.642;2023-03-01T11:21:25;23.45;;;15.95;;
69047;SDS011;56119;50.118;8.642;2023-03-01T11:23:52;26.38;;;16.48;;
69047;SDS011;56119;50.118;8.642;2023-03-01T11:26:18;23.88;;;15.70;;
69047;SDS011;56119;50.118;8.642;2023-03-01T11:28:44;22.75;;;15.40;;
69047;SDS011;56119;50.118;8.642;2023-03-01T11:31:14;24.52;;;16.45;;
69047;SDS011;56119;50.118;8.642;2023-03-01T11:38:39;22.90;;;15.52;;
69047;SDS011;56119;50.118;8.642;2023-03-01T11:41:06;23.52;;;15.55;;
69047;SDS011;56119;50.118;8.642;2023-03-01T11:43:36;21.23;;;14.85;;
69047;SDS011;56119;50.118;8.642;2023-03-01T11:49:37;20.80;;;13.57;;
69047;SDS011;56119;50.118;8.642;2023-03-01T11:51:49;21.83;;;15.73;;
69047;SDS011;56119;50.118;8.642;2023-03-01T11:54:31;19.02;;;13.52;;
69047;SDS011;56119;50.118;8.642;2023-03-01T11:57:14;21.15;;;13.77;;
69047;SDS011;56119;50.118;8.642;2023-03-01T11:59:51;19.60;;;14.82;;
69047;SDS011;56119;50.118;8.642;2023-03-01T12:10:10;21.77;;;13.93;;
69047;SDS011;56119;50.118;8.642;2023-03-01T12:12:45;19.20;;;12.38;;
69047;SDS011;56119;50.118;8.642;2023-03-01T12:23:07;17.60;;;13.45;;
69047;SDS011;56119;50.118;8.642;2023-03-01T12:31:16;18.27;;;13.50;;
69047;SDS011;56119;50.118;8.642;2023-03-01T12:34:00;20.08;;;13.65;;
69047;SDS011;56119;50.118;8.642;2023-03-01T12:36:37;18.27;;;13.02;;
69047;SDS011;56119;50.118;8.642;2023-03-01T12:49:57;18.48;;;13.30;;
69047;SDS011;56119;50.118;8.642;2023-03-01T12:52:33;16.38;;;11.93;;
69047;SDS011;56119;50.118;8.642;2023-03-01T12:55:01;18.67;;;12.68;;
69047;SDS011;56119;50.118;8.642;2023-03-01T12:57:42;16.30;;;12.00;;
69047;SDS011;56119;50.118;8.642;2023-03-01T13:00:26;19.58;;;11.68;;
69047;SDS011;56119;50.118;8.642;2023-03-01T13:05:52;18.10;;;11.93;;
69047;SDS011;56119;50.118;8.642;2023-03-01T13:10:55;15.30;;;10.73;;
69047;SDS011;56119;50.118;8.642;2023-03-01T13:13:25;15.68;;;10.80;;
69047;SDS011;56119;50.118;8.642;2023-03-01T13:15:52;16.48;;;10.90;;
69047;SDS011;56119;50.118;8.642;2023-03-01T13:28:40;18.98;;;12.10;;
69047;SDS011;56119;50.118;8.642;2023-03-01T13:31:08;18.27;;;11.88;;
69047;SDS011;56119;50.118;8.642;2023-03-01T13:33:40;16.23;;;10.93;;
69047;SDS011;56119;50.118;8.642;2023-03-01T13:36:06;14.32;;;11.55;;
69047;SDS011;56119;50.118;8.642;2023-03-01T13:41:02;18.60;;;11.70;;
69047;SDS011;56119;50.118;8.642;2023-03-01T13:43:33;13.80;;;11.38;;
69047;SDS011;56119;50.118;8.642;2023-03-01T13:46:00;19.98;;;12.43;;
69047;SDS011;56119;50.118;8.642;2023-03-01T13:48:28;16.83;;;11.88;;
69047;SDS011;56119;50.118;8.642;2023-03-01T13:50:59;18.40;;;12.02;;
69047;SDS011;56119;50.118;8.642;2023-03-01T13:53:27;15.18;;;11.57;;
69047;SDS011;56119;50.118;8.642;2023-03-01T13:55:56;20.08;;;13.00;;
69047;SDS011;56119;50.118;8.642;2023-03-01T14:01:02;16.70;;;11.98;;
69047;SDS011;56119;50.118;8.642;2023-03-01T14:03:29;17.67;;;12.05;;
69047;SDS011;56119;50.118;8.642;2023-03-01T14:06:09;13.35;;;11.02;;
69047;SDS011;56119;50.118;8.642;2023-03-01T14:08:37;16.23;;;11.88;;
69047;SDS011;56119;50.118;8.642;2023-03-01T14:11:13;18.35;;;11.48;;
69047;SDS011;56119;50.118;8.642;2023-03-01T14:13:48;17.60;;;12.52;;
69047;SDS011;56119;50.118;8.642;2023-03-01T14:19:08;18.15;;;11.57;;
69047;SDS011;56119;50.118;8.642;2023-03-01T14:21:38;16.67;;;12.02;;
69047;SDS011;56119;50.118;8.642;2023-03-01T14:24:04;16.90;;;11.20;;
69047;SDS011;56119;50.118;8.642;2023-03-01T14:26:31;17.08;;;11.60;;
69047;SDS011;56119;50.118;8.642;2023-03-01T14:28:59;17.08;;;12.20;;
69047;SDS011;56119;50.118;8.642;2023-03-01T14:31:32;20.45;;;12.13;;
69047;SDS011;56119;50.118;8.642;2023-03-01T14:33:59;17.27;;;11.30;;
69047;SDS011;56119;50.118;8.642;2023-03-01T14:36:27;17.95;;;12.30;;
69047;SDS011;56119;50.118;8.642;2023-03-01T14:38:53;14.45;;;10.70;;
69047;SDS011;56119;50.118;8.642;2023-03-01T14:41:23;17.92;;;11.80;;
69047;SDS011;56119;50.118;8.642;2023-03-01T14:43:50;15.93;;;11.40;;
69047;SDS011;56119;50.118;8.642;2023-03-01T14:46:18;18.05;;;11.68;;
69047;SDS011;56119;50.118;8.642;2023-03-01T14:48:45;16.33;;;11.43;;
69047;SDS011;56119;50.118;8.642;2023-03-01T14:51:11;18.25;;;12.02;;
69047;SDS011;56119;50.118;8.642;2023-03-01T14:53:37;18.38;;;11.88;;
69047;SDS011;56119;50.118;8.642;2023-03-01T14:56:03;16.35;;;10.82;;
69047;SDS011;56119;50.118;8.642;2023-03-01T14:58:31;17.73;;;11.55;;
69047;SDS011;56119;50.118;8.642;2023-03-01T15:01:02;16.83;;;12.15;;
69047;SDS011;56119;50.118;8.642;2023-03-01T15:03:31;18.60;;;12.05;;
69047;SDS011;56119;50.118;8.642;2023-03-01T15:05:59;16.05;;;11.13;;
69047;SDS011;56119;50.118;8.642;2023-03-01T15:08:26;16.10;;;11.23;;
69047;SDS011;56119;50.118;8.642;2023-03-01T15:13:31;16.08;;;10.70;;
69047;SDS011;56119;50.118;8.642;2023-03-01T15:16:01;20.30;;;12.02;;
69047;SDS011;56119;50.118;8.642;2023-03-01T15:18:28;14.73;;;9.40;;
69047;SDS011;56119;50.118;8.642;2023-03-01T15:20:55;14.13;;;9.93;;
69047;SDS011;56119;50.118;8.642;2023-03-01T15:23:23;16.40;;;10.75;;
69047;SDS011;56119;50.118;8.642;2023-03-01T15:25:50;15.60;;;10.45;;
69047;SDS011;56119;50.118;8.642;2023-03-01T15:28:21;15.05;;;10.57;;
69047;SDS011;56119;50.118;8.642;2023-03-01T15:30:51;15.02;;;10.27;;
69047;SDS011;56119;50.118;8.642;2023-03-01T15:33:19;14.55;;;9.68;;
69047;SDS011;56119;50.118;8.642;2023-03-01T15:35:50;13.95;;;9.77;;
69047;SDS011;56119;50.118;8.642;2023-03-01T15:38:50;13.75;;;9.65;;
69047;SDS011;56119;50.118;8.642;2023-03-01T15:41:22;15.85;;;10.20;;
69047;SDS011;56119;50.118;8.642;2023-03-01T15:43:48;15.88;;;10.23;;
69047;SDS011;56119;50.118;8.642;2023-03-01T15:46:20;13.88;;;9.82;;
69047;SDS011;56119;50.118;8.642;2023-03-01T15:48:49;14.50;;;10.27;;
69047;SDS011;56119;50.118;8.642;2023-03-01T15:51:17;15.32;;;10.60;;
69047;SDS011;56119;50.118;8.642;2023-03-01T15:53:45;13.45;;;9.88;;
69047;SDS011;56119;50.118;8.642;2023-03-01T15:56:13;13.10;;;9.63;;
69047;SDS011;56119;50.118;8.642;2023-03-01T15:58:39;15.02;;;10.80;;
69047;SDS011;56119;50.118;8.642;2023-03-01T16:01:09;16.10;;;10.05;;
69047;SDS011;56119;50.118;8.642;2023-03-01T16:03:37;15.45;;;9.52;;
69047;SDS011;56119;50.118;8.642;2023-03-01T16:06:03;14.88;;;10.32;;
69047;SDS011;56119;50.118;8.642;2023-03-01T16:08:29;13.02;;;9.57;;